Weather at Waynesville-St. Robert Regional Forney field

Public forecast

Using degrees Fahrenheit for public forecast. Weather courtesy of forecast.io.

Current aviation weather report (METAR) for Waynesville-St. Robert Regional Forney field

Retrieved 2021/01/19 13:13 UTC (18 minutes ago):

KTBN 191313Z 29004KT 3/8SM FZFG VV001 M01/M02 A3027

Closest aviation forecast (TAF) to Waynesville-St. Robert Regional Forney field

Closest forecast is Columbia Regional Airport, 64.7 nm (119.9 km) N. Retrieved 2021/01/19 12:22 UTC (1 hour ago):

TAF KCOU 191120Z 1912/2012 26005KT 1SM BR SCT002 BKN250 TEMPO 1912/1914 1/4SM FZFG OVC002 FM191400 27007KT 5SM BR BKN006 FM191800 26012KT P6SM OVC018 FM192000 27009KT P6SM BKN035 FM200100 28008KT P6SM SCT090